sensor_id;sensor_type;location;lat;lon;timestamp;P1;durP1;ratioP1;P2;durP2;ratioP2
58306;SDS011;44116;50.884;4.768;2023-07-22T00:01:27;8.3;;;5.8;;
58306;SDS011;44116;50.884;4.768;2023-07-22T00:03:27;9.1;;;6.3;;
58306;SDS011;44116;50.884;4.768;2023-07-22T00:05:27;11.4;;;6.4;;
58306;SDS011;44116;50.884;4.768;2023-07-22T00:07:27;8.9;;;6.3;;
58306;SDS011;44116;50.884;4.768;2023-07-22T00:09:27;9.8;;;6.1;;
58306;SDS011;44116;50.884;4.768;2023-07-22T00:13:27;9.6;;;6.5;;
58306;SDS011;44116;50.884;4.768;2023-07-22T00:15:26;9.3;;;6.3;;
58306;SDS011;44116;50.884;4.768;2023-07-22T00:17:26;10.5;;;6.7;;
58306;SDS011;44116;50.884;4.768;2023-07-22T00:21:26;10.5;;;6.9;;
58306;SDS011;44116;50.884;4.768;2023-07-22T00:23:26;8.8;;;7.0;;
58306;SDS011;44116;50.884;4.768;2023-07-22T00:25:26;10.1;;;6.7;;
58306;SDS011;44116;50.884;4.768;2023-07-22T00:29:25;11.2;;;7.0;;
58306;SDS011;44116;50.884;4.768;2023-07-22T00:31:25;11.2;;;7.3;;
58306;SDS011;44116;50.884;4.768;2023-07-22T00:33:25;12.0;;;7.0;;
58306;SDS011;44116;50.884;4.768;2023-07-22T00:35:25;10.9;;;6.8;;
58306;SDS011;44116;50.884;4.768;2023-07-22T00:37:25;11.6;;;7.0;;
58306;SDS011;44116;50.884;4.768;2023-07-22T00:39:25;9.5;;;7.1;;
58306;SDS011;44116;50.884;4.768;2023-07-22T00:41:24;9.7;;;6.9;;
58306;SDS011;44116;50.884;4.768;2023-07-22T00:43:24;9.7;;;7.1;;
58306;SDS011;44116;50.884;4.768;2023-07-22T00:45:24;10.1;;;7.6;;
58306;SDS011;44116;50.884;4.768;2023-07-22T00:47:24;12.0;;;7.8;;
58306;SDS011;44116;50.884;4.768;2023-07-22T00:49:25;11.5;;;7.9;;
58306;SDS011;44116;50.884;4.768;2023-07-22T00:51:24;11.1;;;7.2;;
58306;SDS011;44116;50.884;4.768;2023-07-22T00:53:24;11.5;;;8.1;;
58306;SDS011;44116;50.884;4.768;2023-07-22T00:55:25;10.8;;;7.8;;
58306;SDS011;44116;50.884;4.768;2023-07-22T00:57:23;12.1;;;7.9;;
58306;SDS011;44116;50.884;4.768;2023-07-22T00:59:23;11.0;;;7.8;;
58306;SDS011;44116;50.884;4.768;2023-07-22T01:01:23;11.5;;;7.5;;
58306;SDS011;44116;50.884;4.768;2023-07-22T01:03:23;10.3;;;7.7;;
58306;SDS011;44116;50.884;4.768;2023-07-22T01:05:23;12.1;;;7.9;;
58306;SDS011;44116;50.884;4.768;2023-07-22T01:07:23;10.4;;;8.0;;
58306;SDS011;44116;50.884;4.768;2023-07-22T01:09:22;12.7;;;7.8;;
58306;SDS011;44116;50.884;4.768;2023-07-22T01:11:22;14.5;;;8.4;;
58306;SDS011;44116;50.884;4.768;2023-07-22T01:13:22;12.6;;;8.0;;
58306;SDS011;44116;50.884;4.768;2023-07-22T01:15:23;12.2;;;8.3;;
58306;SDS011;44116;50.884;4.768;2023-07-22T01:17:22;12.9;;;8.1;;
58306;SDS011;44116;50.884;4.768;2023-07-22T01:19:22;14.7;;;8.6;;
58306;SDS011;44116;50.884;4.768;2023-07-22T01:21:23;11.5;;;8.2;;
58306;SDS011;44116;50.884;4.768;2023-07-22T01:23:21;11.2;;;8.3;;
58306;SDS011;44116;50.884;4.768;2023-07-22T01:25:22;12.1;;;8.5;;
58306;SDS011;44116;50.884;4.768;2023-07-22T01:27:21;11.7;;;8.7;;
58306;SDS011;44116;50.884;4.768;2023-07-22T01:29:21;13.7;;;8.4;;
58306;SDS011;44116;50.884;4.768;2023-07-22T01:31:21;13.1;;;8.3;;
58306;SDS011;44116;50.884;4.768;2023-07-22T01:33:21;15.7;;;9.0;;
58306;SDS011;44116;50.884;4.768;2023-07-22T01:35:20;13.9;;;8.5;;
58306;SDS011;44116;50.884;4.768;2023-07-22T01:37:20;13.4;;;8.8;;
58306;SDS011;44116;50.884;4.768;2023-07-22T01:39:20;12.5;;;8.1;;
58306;SDS011;44116;50.884;4.768;2023-07-22T01:41:20;12.9;;;8.6;;
58306;SDS011;44116;50.884;4.768;2023-07-22T01:43:21;15.7;;;8.2;;
58306;SDS011;44116;50.884;4.768;2023-07-22T01:45:20;14.5;;;9.1;;
58306;SDS011;44116;50.884;4.768;2023-07-22T01:47:20;13.1;;;8.2;;
58306;SDS011;44116;50.884;4.768;2023-07-22T01:49:20;13.2;;;8.5;;
58306;SDS011;44116;50.884;4.768;2023-07-22T01:51:19;12.7;;;8.3;;
58306;SDS011;44116;50.884;4.768;2023-07-22T01:53:20;13.5;;;9.3;;
58306;SDS011;44116;50.884;4.768;2023-07-22T01:55:19;15.2;;;9.0;;
58306;SDS011;44116;50.884;4.768;2023-07-22T01:57:19;13.8;;;8.4;;
58306;SDS011;44116;50.884;4.768;2023-07-22T01:59:19;14.3;;;8.7;;
58306;SDS011;44116;50.884;4.768;2023-07-22T02:01:19;13.5;;;8.9;;
58306;SDS011;44116;50.884;4.768;2023-07-22T02:03:18;14.2;;;9.0;;
58306;SDS011;44116;50.884;4.768;2023-07-22T02:05:18;13.8;;;9.1;;
58306;SDS011;44116;50.884;4.768;2023-07-22T02:09:18;13.2;;;8.4;;
58306;SDS011;44116;50.884;4.768;2023-07-22T02:11:18;16.9;;;8.9;;
58306;SDS011;44116;50.884;4.768;2023-07-22T02:15:18;14.2;;;8.8;;
58306;SDS011;44116;50.884;4.768;2023-07-22T02:17:17;13.4;;;8.5;;
58306;SDS011;44116;50.884;4.768;2023-07-22T02:19:17;13.7;;;8.7;;
58306;SDS011;44116;50.884;4.768;2023-07-22T02:21:17;14.2;;;8.6;;
58306;SDS011;44116;50.884;4.768;2023-07-22T02:23:17;13.7;;;8.2;;
58306;SDS011;44116;50.884;4.768;2023-07-22T02:25:17;12.6;;;8.5;;
58306;SDS011;44116;50.884;4.768;2023-07-22T02:27:16;15.5;;;9.0;;
58306;SDS011;44116;50.884;4.768;2023-07-22T02:29:16;15.3;;;8.7;;
58306;SDS011;44116;50.884;4.768;2023-07-22T02:31:16;13.4;;;8.8;;
58306;SDS011;44116;50.884;4.768;2023-07-22T02:33:16;14.0;;;9.2;;
58306;SDS011;44116;50.884;4.768;2023-07-22T02:35:16;13.5;;;8.8;;
58306;SDS011;44116;50.884;4.768;2023-07-22T02:37:16;15.5;;;9.4;;
58306;SDS011;44116;50.884;4.768;2023-07-22T02:39:15;14.1;;;9.1;;
58306;SDS011;44116;50.884;4.768;2023-07-22T02:41:15;17.6;;;9.2;;
58306;SDS011;44116;50.884;4.768;2023-07-22T02:43:15;16.5;;;8.9;;
58306;SDS011;44116;50.884;4.768;2023-07-22T02:45:15;13.7;;;8.6;;
58306;SDS011;44116;50.884;4.768;2023-07-22T02:47:15;14.6;;;8.9;;
58306;SDS011;44116;50.884;4.768;2023-07-22T02:49:15;14.4;;;8.3;;
58306;SDS011;44116;50.884;4.768;2023-07-22T02:51:14;13.4;;;8.6;;
58306;SDS011;44116;50.884;4.768;2023-07-22T02:53:14;15.9;;;9.6;;
58306;SDS011;44116;50.884;4.768;2023-07-22T02:55:16;13.1;;;9.3;;
58306;SDS011;44116;50.884;4.768;2023-07-22T02:57:14;14.8;;;8.9;;
58306;SDS011;44116;50.884;4.768;2023-07-22T02:59:14;13.8;;;8.3;;
58306;SDS011;44116;50.884;4.768;2023-07-22T03:01:14;15.5;;;9.7;;
58306;SDS011;44116;50.884;4.768;2023-07-22T03:03:13;14.9;;;9.2;;
58306;SDS011;44116;50.884;4.768;2023-07-22T03:05:13;15.5;;;9.3;;
58306;SDS011;44116;50.884;4.768;2023-07-22T03:07:13;16.2;;;8.4;;
58306;SDS011;44116;50.884;4.768;2023-07-22T03:09:13;15.7;;;9.6;;
58306;SDS011;44116;50.884;4.768;2023-07-22T03:11:13;14.9;;;10.1;;
58306;SDS011;44116;50.884;4.768;2023-07-22T03:13:13;14.8;;;9.1;;
58306;SDS011;44116;50.884;4.768;2023-07-22T03:15:13;15.6;;;9.8;;
58306;SDS011;44116;50.884;4.768;2023-07-22T03:17:12;18.4;;;9.5;;
58306;SDS011;44116;50.884;4.768;2023-07-22T03:21:12;17.3;;;9.6;;
58306;SDS011;44116;50.884;4.768;2023-07-22T03:23:12;19.5;;;9.5;;
58306;SDS011;44116;50.884;4.768;2023-07-22T03:25:13;15.0;;;10.0;;
58306;SDS011;44116;50.884;4.768;2023-07-22T03:27:12;17.6;;;9.7;;
58306;SDS011;44116;50.884;4.768;2023-07-22T03:29:11;19.6;;;10.3;;
58306;SDS011;44116;50.884;4.768;2023-07-22T03:31:11;17.2;;;10.6;;
58306;SDS011;44116;50.884;4.768;2023-07-22T03:33:11;17.9;;;9.7;;
58306;SDS011;44116;50.884;4.768;2023-07-22T03:35:11;19.2;;;10.1;;
58306;SDS011;44116;50.884;4.768;2023-07-22T03:37:11;16.3;;;9.4;;
58306;SDS011;44116;50.884;4.768;2023-07-22T03:39:11;16.3;;;9.6;;
58306;SDS011;44116;50.884;4.768;2023-07-22T03:41:10;17.3;;;10.2;;
58306;SDS011;44116;50.884;4.768;2023-07-22T03:43:10;18.2;;;9.8;;
58306;SDS011;44116;50.884;4.768;2023-07-22T03:45:11;16.3;;;10.1;;
58306;SDS011;44116;50.884;4.768;2023-07-22T03:47:10;16.9;;;9.8;;
58306;SDS011;44116;50.884;4.768;2023-07-22T03:49:10;17.3;;;9.9;;
58306;SDS011;44116;50.884;4.768;2023-07-22T03:51:10;14.8;;;9.4;;
58306;SDS011;44116;50.884;4.768;2023-07-22T03:53:09;18.1;;;10.3;;
58306;SDS011;44116;50.884;4.768;2023-07-22T03:55:09;16.7;;;9.7;;
58306;SDS011;44116;50.884;4.768;2023-07-22T03:57:09;17.1;;;10.3;;
58306;SDS011;44116;50.884;4.768;2023-07-22T03:59:09;18.2;;;10.4;;
58306;SDS011;44116;50.884;4.768;2023-07-22T04:01:10;19.9;;;10.5;;
58306;SDS011;44116;50.884;4.768;2023-07-22T04:03:09;19.5;;;11.2;;
58306;SDS011;44116;50.884;4.768;2023-07-22T04:05:09;15.3;;;9.7;;
58306;SDS011;44116;50.884;4.768;2023-07-22T04:07:08;19.1;;;10.1;;
58306;SDS011;44116;50.884;4.768;2023-07-22T04:09:08;18.5;;;10.0;;
58306;SDS011;44116;50.884;4.768;2023-07-22T04:13:08;17.2;;;10.2;;
58306;SDS011;44116;50.884;4.768;2023-07-22T04:15:08;16.7;;;10.9;;
58306;SDS011;44116;50.884;4.768;2023-07-22T04:17:08;19.1;;;10.6;;
58306;SDS011;44116;50.884;4.768;2023-07-22T04:19:07;18.4;;;10.8;;
58306;SDS011;44116;50.884;4.768;2023-07-22T04:21:07;18.4;;;10.9;;
58306;SDS011;44116;50.884;4.768;2023-07-22T04:23:07;17.7;;;10.5;;
58306;SDS011;44116;50.884;4.768;2023-07-22T04:25:07;20.2;;;9.9;;
58306;SDS011;44116;50.884;4.768;2023-07-22T04:27:07;21.5;;;10.9;;
58306;SDS011;44116;50.884;4.768;2023-07-22T04:29:06;18.0;;;10.7;;
58306;SDS011;44116;50.884;4.768;2023-07-22T04:31:06;20.0;;;11.0;;
58306;SDS011;44116;50.884;4.768;2023-07-22T04:33:06;18.7;;;11.1;;
58306;SDS011;44116;50.884;4.768;2023-07-22T04:35:07;20.7;;;11.3;;
58306;SDS011;44116;50.884;4.768;2023-07-22T04:37:06;19.8;;;10.4;;
58306;SDS011;44116;50.884;4.768;2023-07-22T04:39:06;19.0;;;10.6;;
58306;SDS011;44116;50.884;4.768;2023-07-22T04:41:05;17.0;;;10.3;;
58306;SDS011;44116;50.884;4.768;2023-07-22T04:43:05;18.6;;;10.6;;
58306;SDS011;44116;50.884;4.768;2023-07-22T04:45:06;19.2;;;9.7;;
58306;SDS011;44116;50.884;4.768;2023-07-22T04:47:05;18.4;;;10.3;;
58306;SDS011;44116;50.884;4.768;2023-07-22T04:49:05;17.4;;;10.2;;
58306;SDS011;44116;50.884;4.768;2023-07-22T04:51:04;18.8;;;10.1;;
58306;SDS011;44116;50.884;4.768;2023-07-22T04:53:04;17.5;;;10.9;;
58306;SDS011;44116;50.884;4.768;2023-07-22T04:55:04;20.8;;;10.7;;
58306;SDS011;44116;50.884;4.768;2023-07-22T04:57:04;19.0;;;9.5;;
58306;SDS011;44116;50.884;4.768;2023-07-22T04:59:04;18.6;;;10.4;;
58306;SDS011;44116;50.884;4.768;2023-07-22T05:01:04;20.1;;;10.9;;
58306;SDS011;44116;50.884;4.768;2023-07-22T05:03:04;16.5;;;9.8;;
58306;SDS011;44116;50.884;4.768;2023-07-22T05:05:03;17.3;;;10.3;;
58306;SDS011;44116;50.884;4.768;2023-07-22T05:07:04;16.8;;;9.3;;
58306;SDS011;44116;50.884;4.768;2023-07-22T05:09:03;17.9;;;10.0;;
58306;SDS011;44116;50.884;4.768;2023-07-22T05:11:03;20.4;;;10.5;;
58306;SDS011;44116;50.884;4.768;2023-07-22T05:13:03;15.2;;;10.0;;
58306;SDS011;44116;50.884;4.768;2023-07-22T05:15:02;18.3;;;9.8;;
58306;SDS011;44116;50.884;4.768;2023-07-22T05:17:02;21.4;;;10.7;;
58306;SDS011;44116;50.884;4.768;2023-07-22T05:19:02;19.0;;;10.6;;
58306;SDS011;44116;50.884;4.768;2023-07-22T05:21:02;18.9;;;9.8;;
58306;SDS011;44116;50.884;4.768;2023-07-22T05:23:02;16.0;;;9.6;;
58306;SDS011;44116;50.884;4.768;2023-07-22T05:25:02;16.7;;;10.3;;
58306;SDS011;44116;50.884;4.768;2023-07-22T05:27:02;15.7;;;9.6;;
58306;SDS011;44116;50.884;4.768;2023-07-22T05:29:01;20.0;;;9.8;;
58306;SDS011;44116;50.884;4.768;2023-07-22T05:31:01;19.3;;;10.1;;
58306;SDS011;44116;50.884;4.768;2023-07-22T05:33:01;16.8;;;9.5;;
58306;SDS011;44116;50.884;4.768;2023-07-22T05:35:01;16.5;;;9.4;;
58306;SDS011;44116;50.884;4.768;2023-07-22T05:37:01;17.2;;;9.3;;
58306;SDS011;44116;50.884;4.768;2023-07-22T05:39:00;20.2;;;10.2;;
58306;SDS011;44116;50.884;4.768;2023-07-22T05:41:00;16.9;;;9.0;;
58306;SDS011;44116;50.884;4.768;2023-07-22T05:43:00;18.5;;;10.0;;
58306;SDS011;44116;50.884;4.768;2023-07-22T05:45:02;17.0;;;9.5;;
58306;SDS011;44116;50.884;4.768;2023-07-22T05:47:00;19.4;;;9.2;;
58306;SDS011;44116;50.884;4.768;2023-07-22T05:49:00;17.8;;;9.7;;
58306;SDS011;44116;50.884;4.768;2023-07-22T05:51:00;21.4;;;9.5;;
58306;SDS011;44116;50.884;4.768;2023-07-22T05:52:59;20.3;;;9.8;;
58306;SDS011;44116;50.884;4.768;2023-07-22T05:54:59;23.5;;;8.9;;
58306;SDS011;44116;50.884;4.768;2023-07-22T05:56:59;16.1;;;9.1;;
58306;SDS011;44116;50.884;4.768;2023-07-22T05:58:59;18.0;;;9.3;;
58306;SDS011;44116;50.884;4.768;2023-07-22T06:00:59;16.4;;;9.2;;
58306;SDS011;44116;50.884;4.768;2023-07-22T06:02:59;18.4;;;9.5;;
58306;SDS011;44116;50.884;4.768;2023-07-22T06:04:59;15.0;;;9.3;;
58306;SDS011;44116;50.884;4.768;2023-07-22T06:06:59;16.9;;;9.0;;
58306;SDS011;44116;50.884;4.768;2023-07-22T06:08:58;15.1;;;9.3;;
58306;SDS011;44116;50.884;4.768;2023-07-22T06:10:58;16.0;;;9.0;;
58306;SDS011;44116;50.884;4.768;2023-07-22T06:12:58;17.7;;;8.8;;
58306;SDS011;44116;50.884;4.768;2023-07-22T06:14:58;15.5;;;7.9;;
58306;SDS011;44116;50.884;4.768;2023-07-22T06:16:58;15.4;;;8.0;;
58306;SDS011;44116;50.884;4.768;2023-07-22T06:18:58;16.3;;;8.6;;
58306;SDS011;44116;50.884;4.768;2023-07-22T06:20:58;13.8;;;7.5;;
58306;SDS011;44116;50.884;4.768;2023-07-22T06:22:57;16.0;;;8.0;;
58306;SDS011;44116;50.884;4.768;2023-07-22T06:24:57;15.3;;;8.1;;
58306;SDS011;44116;50.884;4.768;2023-07-22T06:26:57;19.6;;;8.4;;
58306;SDS011;44116;50.884;4.768;2023-07-22T06:28:57;12.8;;;7.4;;
58306;SDS011;44116;50.884;4.768;2023-07-22T06:30:57;16.9;;;7.9;;
58306;SDS011;44116;50.884;4.768;2023-07-22T06:34:57;19.8;;;8.0;;
58306;SDS011;44116;50.884;4.768;2023-07-22T06:42:56;17.5;;;8.1;;
58306;SDS011;44116;50.884;4.768;2023-07-22T06:44:56;14.6;;;7.8;;
58306;SDS011;44116;50.884;4.768;2023-07-22T06:46:56;20.3;;;7.5;;
58306;SDS011;44116;50.884;4.768;2023-07-22T06:48:56;17.1;;;7.2;;
58306;SDS011;44116;50.884;4.768;2023-07-22T06:54:56;15.2;;;7.8;;
58306;SDS011;44116;50.884;4.768;2023-07-22T06:56:56;14.5;;;7.1;;
58306;SDS011;44116;50.884;4.768;2023-07-22T06:58:56;15.3;;;7.7;;
58306;SDS011;44116;50.884;4.768;2023-07-22T07:00:56;15.2;;;8.0;;
58306;SDS011;44116;50.884;4.768;2023-07-22T07:02:55;14.1;;;7.0;;
58306;SDS011;44116;50.884;4.768;2023-07-22T07:04:55;15.1;;;7.5;;
58306;SDS011;44116;50.884;4.768;2023-07-22T07:06:55;12.1;;;6.9;;
58306;SDS011;44116;50.884;4.768;2023-07-22T07:08:55;16.8;;;7.1;;
58306;SDS011;44116;50.884;4.768;2023-07-22T07:10:55;12.4;;;6.5;;
58306;SDS011;44116;50.884;4.768;2023-07-22T07:12:55;12.4;;;7.6;;
58306;SDS011;44116;50.884;4.768;2023-07-22T07:14:55;14.4;;;7.2;;
58306;SDS011;44116;50.884;4.768;2023-07-22T07:16:55;14.4;;;6.7;;
58306;SDS011;44116;50.884;4.768;2023-07-22T07:18:55;14.0;;;6.9;;
58306;SDS011;44116;50.884;4.768;2023-07-22T07:20:55;13.0;;;6.5;;
58306;SDS011;44116;50.884;4.768;2023-07-22T07:22:55;15.8;;;6.9;;
58306;SDS011;44116;50.884;4.768;2023-07-22T07:24:54;14.6;;;6.4;;
58306;SDS011;44116;50.884;4.768;2023-07-22T07:26:54;16.6;;;6.9;;
58306;SDS011;44116;50.884;4.768;2023-07-22T07:28:54;13.2;;;6.6;;
58306;SDS011;44116;50.884;4.768;2023-07-22T07:30:54;14.0;;;7.0;;
58306;SDS011;44116;50.884;4.768;2023-07-22T07:32:54;12.0;;;6.6;;
58306;SDS011;44116;50.884;4.768;2023-07-22T07:36:54;13.7;;;6.3;;
58306;SDS011;44116;50.884;4.768;2023-07-22T07:38:54;13.8;;;6.1;;
58306;SDS011;44116;50.884;4.768;2023-07-22T07:40:56;11.5;;;5.9;;
58306;SDS011;44116;50.884;4.768;2023-07-22T07:42:54;12.0;;;5.5;;
58306;SDS011;44116;50.884;4.768;2023-07-22T07:44:54;14.9;;;6.5;;
58306;SDS011;44116;50.884;4.768;2023-07-22T07:46:54;10.5;;;5.6;;
58306;SDS011;44116;50.884;4.768;2023-07-22T07:48:55;14.8;;;5.9;;
58306;SDS011;44116;50.884;4.768;2023-07-22T07:50:54;12.6;;;5.5;;
58306;SDS011;44116;50.884;4.768;2023-07-22T07:52:54;14.1;;;5.4;;
58306;SDS011;44116;50.884;4.768;2023-07-22T07:54:54;13.0;;;5.8;;
58306;SDS011;44116;50.884;4.768;2023-07-22T07:56:54;11.9;;;5.7;;
58306;SDS011;44116;50.884;4.768;2023-07-22T07:58:54;8.9;;;4.9;;
58306;SDS011;44116;50.884;4.768;2023-07-22T08:00:54;13.8;;;5.4;;
58306;SDS011;44116;50.884;4.768;2023-07-22T08:02:53;9.9;;;5.2;;
58306;SDS011;44116;50.884;4.768;2023-07-22T08:04:54;12.3;;;5.6;;
58306;SDS011;44116;50.884;4.768;2023-07-22T08:06:53;11.5;;;4.8;;
58306;SDS011;44116;50.884;4.768;2023-07-22T08:10:58;12.5;;;4.7;;
58306;SDS011;44116;50.884;4.768;2023-07-22T08:14:53;9.1;;;4.1;;
58306;SDS011;44116;50.884;4.768;2023-07-22T08:16:53;11.8;;;4.2;;
58306;SDS011;44116;50.884;4.768;2023-07-22T08:18:53;10.6;;;3.9;;
58306;SDS011;44116;50.884;4.768;2023-07-22T08:20:55;10.9;;;4.4;;
58306;SDS011;44116;50.884;4.768;2023-07-22T08:22:53;7.9;;;4.0;;
58306;SDS011;44116;50.884;4.768;2023-07-22T08:24:53;10.4;;;4.6;;
58306;SDS011;44116;50.884;4.768;2023-07-22T08:26:53;10.1;;;4.1;;
58306;SDS011;44116;50.884;4.768;2023-07-22T08:30:54;8.2;;;3.8;;
58306;SDS011;44116;50.884;4.768;2023-07-22T08:32:53;9.4;;;4.1;;
58306;SDS011;44116;50.884;4.768;2023-07-22T08:34:53;12.2;;;4.2;;
58306;SDS011;44116;50.884;4.768;2023-07-22T08:36:53;11.4;;;4.3;;
58306;SDS011;44116;50.884;4.768;2023-07-22T08:38:53;9.7;;;4.1;;
58306;SDS011;44116;50.884;4.768;2023-07-22T08:40:53;8.8;;;3.6;;
58306;SDS011;44116;50.884;4.768;2023-07-22T08:42:53;9.0;;;3.4;;
58306;SDS011;44116;50.884;4.768;2023-07-22T08:44:56;9.3;;;3.7;;
58306;SDS011;44116;50.884;4.768;2023-07-22T08:46:55;7.3;;;3.4;;
58306;SDS011;44116;50.884;4.768;2023-07-22T08:48:53;9.2;;;3.5;;
58306;SDS011;44116;50.884;4.768;2023-07-22T08:52:53;7.1;;;3.1;;
58306;SDS011;44116;50.884;4.768;2023-07-22T08:54:54;10.0;;;3.3;;
58306;SDS011;44116;50.884;4.768;2023-07-22T08:56:53;8.8;;;3.7;;
58306;SDS011;44116;50.884;4.768;2023-07-22T08:58:53;8.8;;;2.9;;
58306;SDS011;44116;50.884;4.768;2023-07-22T09:00:53;10.4;;;3.3;;
58306;SDS011;44116;50.884;4.768;2023-07-22T09:02:53;8.6;;;3.4;;
58306;SDS011;44116;50.884;4.768;2023-07-22T09:04:53;11.4;;;3.2;;
58306;SDS011;44116;50.884;4.768;2023-07-22T09:06:53;8.3;;;3.0;;
58306;SDS011;44116;50.884;4.768;2023-07-22T09:08:53;6.2;;;2.9;;
58306;SDS011;44116;50.884;4.768;2023-07-22T09:10:53;8.5;;;3.2;;
58306;SDS011;44116;50.884;4.768;2023-07-22T09:12:53;7.3;;;3.0;;
58306;SDS011;44116;50.884;4.768;2023-07-22T09:14:53;12.8;;;3.4;;
58306;SDS011;44116;50.884;4.768;2023-07-22T09:16:53;6.7;;;2.8;;
58306;SDS011;44116;50.884;4.768;2023-07-22T09:18:54;9.5;;;3.1;;
58306;SDS011;44116;50.884;4.768;2023-07-22T09:20:53;9.6;;;3.5;;
58306;SDS011;44116;50.884;4.768;2023-07-22T09:22:53;9.3;;;2.9;;
58306;SDS011;44116;50.884;4.768;2023-07-22T09:24:53;6.4;;;3.0;;
58306;SDS011;44116;50.884;4.768;2023-07-22T09:26:53;4.3;;;2.6;;
58306;SDS011;44116;50.884;4.768;2023-07-22T09:28:54;6.6;;;2.7;;
58306;SDS011;44116;50.884;4.768;2023-07-22T09:32:55;6.2;;;3.0;;
58306;SDS011;44116;50.884;4.768;2023-07-22T09:34:54;6.4;;;2.7;;
58306;SDS011;44116;50.884;4.768;2023-07-22T09:36:54;6.9;;;2.9;;
58306;SDS011;44116;50.884;4.768;2023-07-22T09:40:53;5.7;;;2.7;;
58306;SDS011;44116;50.884;4.768;2023-07-22T09:42:54;4.0;;;2.6;;
58306;SDS011;44116;50.884;4.768;2023-07-22T09:44:54;6.8;;;2.9;;
58306;SDS011;44116;50.884;4.768;2023-07-22T09:46:53;7.7;;;3.0;;
58306;SDS011;44116;50.884;4.768;2023-07-22T09:48:53;7.4;;;2.6;;
58306;SDS011;44116;50.884;4.768;2023-07-22T09:52:54;5.2;;;2.5;;
58306;SDS011;44116;50.884;4.768;2023-07-22T09:54:53;6.6;;;2.6;;
58306;SDS011;44116;50.884;4.768;2023-07-22T09:56:53;7.2;;;2.8;;
58306;SDS011;44116;50.884;4.768;2023-07-22T09:58:53;6.8;;;2.3;;
58306;SDS011;44116;50.884;4.768;2023-07-22T10:00:53;6.7;;;2.7;;
58306;SDS011;44116;50.884;4.768;2023-07-22T10:04:53;5.8;;;2.4;;
58306;SDS011;44116;50.884;4.768;2023-07-22T10:06:53;5.0;;;2.6;;
58306;SDS011;44116;50.884;4.768;2023-07-22T10:08:55;4.9;;;2.7;;
58306;SDS011;44116;50.884;4.768;2023-07-22T10:10:54;5.9;;;2.9;;
58306;SDS011;44116;50.884;4.768;2023-07-22T10:12:53;4.0;;;2.4;;
58306;SDS011;44116;50.884;4.768;2023-07-22T10:18:54;6.6;;;2.2;;
58306;SDS011;44116;50.884;4.768;2023-07-22T10:20:54;8.8;;;2.7;;
58306;SDS011;44116;50.884;4.768;2023-07-22T10:22:54;4.9;;;2.1;;
58306;SDS011;44116;50.884;4.768;2023-07-22T10:24:53;5.6;;;2.2;;
58306;SDS011;44116;50.884;4.768;2023-07-22T10:26:53;12.6;;;2.5;;
58306;SDS011;44116;50.884;4.768;2023-07-22T10:28:55;4.6;;;2.6;;
58306;SDS011;44116;50.884;4.768;2023-07-22T10:32:54;3.0;;;2.0;;
58306;SDS011;44116;50.884;4.768;2023-07-22T10:34:53;6.0;;;2.4;;
58306;SDS011;44116;50.884;4.768;2023-07-22T10:36:55;6.4;;;2.2;;
58306;SDS011;44116;50.884;4.768;2023-07-22T10:38:56;4.4;;;2.3;;
58306;SDS011;44116;50.884;4.768;2023-07-22T10:40:54;6.9;;;2.5;;
58306;SDS011;44116;50.884;4.768;2023-07-22T10:42:57;4.2;;;2.0;;
58306;SDS011;44116;50.884;4.768;2023-07-22T10:44:54;4.0;;;2.1;;
58306;SDS011;44116;50.884;4.768;2023-07-22T10:46:57;4.7;;;2.2;;
58306;SDS011;44116;50.884;4.768;2023-07-22T10:50:58;5.3;;;2.1;;
58306;SDS011;44116;50.884;4.768;2023-07-22T10:53:00;5.2;;;2.3;;
58306;SDS011;44116;50.884;4.768;2023-07-22T10:54:55;5.2;;;2.0;;
58306;SDS011;44116;50.884;4.768;2023-07-22T10:56:56;6.1;;;2.2;;
58306;SDS011;44116;50.884;4.768;2023-07-22T10:58:56;5.5;;;2.1;;
58306;SDS011;44116;50.884;4.768;2023-07-22T11:00:54;4.8;;;2.0;;
58306;SDS011;44116;50.884;4.768;2023-07-22T11:03:08;4.5;;;2.2;;
58306;SDS011;44116;50.884;4.768;2023-07-22T11:04:56;4.5;;;2.0;;
58306;SDS011;44116;50.884;4.768;2023-07-22T11:06:55;2.9;;;1.7;;
58306;SDS011;44116;50.884;4.768;2023-07-22T11:08:55;4.1;;;1.9;;
58306;SDS011;44116;50.884;4.768;2023-07-22T11:10:55;3.3;;;1.6;;
58306;SDS011;44116;50.884;4.768;2023-07-22T11:12:55;4.8;;;2.1;;
58306;SDS011;44116;50.884;4.768;2023-07-22T11:15:03;5.3;;;1.9;;
58306;SDS011;44116;50.884;4.768;2023-07-22T11:16:57;6.5;;;2.1;;
58306;SDS011;44116;50.884;4.768;2023-07-22T11:20:55;4.8;;;1.8;;
58306;SDS011;44116;50.884;4.768;2023-07-22T11:22:57;4.6;;;1.7;;
58306;SDS011;44116;50.884;4.768;2023-07-22T11:24:56;5.3;;;2.1;;
58306;SDS011;44116;50.884;4.768;2023-07-22T11:26:55;3.4;;;2.0;;
58306;SDS011;44116;50.884;4.768;2023-07-22T11:30:56;8.2;;;3.7;;
58306;SDS011;44116;50.884;4.768;2023-07-22T11:32:57;4.3;;;2.2;;
58306;SDS011;44116;50.884;4.768;2023-07-22T11:34:56;6.8;;;3.1;;
58306;SDS011;44116;50.884;4.768;2023-07-22T11:36:56;3.5;;;2.1;;
58306;SDS011;44116;50.884;4.768;2023-07-22T11:39:01;5.2;;;2.3;;
58306;SDS011;44116;50.884;4.768;2023-07-22T11:40:56;4.3;;;2.1;;
58306;SDS011;44116;50.884;4.768;2023-07-22T11:42:56;4.5;;;1.9;;
58306;SDS011;44116;50.884;4.768;2023-07-22T11:44:56;5.0;;;2.2;;
58306;SDS011;44116;50.884;4.768;2023-07-22T11:46:58;6.0;;;2.1;;
58306;SDS011;44116;50.884;4.768;2023-07-22T11:48:56;3.3;;;1.9;;
58306;SDS011;44116;50.884;4.768;2023-07-22T11:50:58;4.6;;;2.1;;
58306;SDS011;44116;50.884;4.768;2023-07-22T11:52:57;3.8;;;1.9;;
58306;SDS011;44116;50.884;4.768;2023-07-22T11:55:01;5.6;;;2.1;;
58306;SDS011;44116;50.884;4.768;2023-07-22T11:56:57;6.3;;;2.6;;
58306;SDS011;44116;50.884;4.768;2023-07-22T11:58:57;6.3;;;2.2;;
58306;SDS011;44116;50.884;4.768;2023-07-22T12:02:57;4.3;;;2.0;;
58306;SDS011;44116;50.884;4.768;2023-07-22T12:04:58;5.6;;;2.5;;
58306;SDS011;44116;50.884;4.768;2023-07-22T12:10:57;4.3;;;2.4;;
58306;SDS011;44116;50.884;4.768;2023-07-22T12:15:01;3.3;;;2.2;;
58306;SDS011;44116;50.884;4.768;2023-07-22T12:16:58;4.7;;;2.4;;
58306;SDS011;44116;50.884;4.768;2023-07-22T12:18:58;4.1;;;2.7;;
58306;SDS011;44116;50.884;4.768;2023-07-22T12:22:58;4.4;;;2.5;;
58306;SDS011;44116;50.884;4.768;2023-07-22T12:24:58;4.7;;;2.3;;
58306;SDS011;44116;50.884;4.768;2023-07-22T12:26:58;4.3;;;2.6;;
58306;SDS011;44116;50.884;4.768;2023-07-22T12:28:58;4.1;;;2.4;;
58306;SDS011;44116;50.884;4.768;2023-07-22T12:32:58;5.9;;;2.5;;
58306;SDS011;44116;50.884;4.768;2023-07-22T12:34:58;5.8;;;2.4;;
58306;SDS011;44116;50.884;4.768;2023-07-22T12:38:59;5.5;;;2.5;;
58306;SDS011;44116;50.884;4.768;2023-07-22T12:41:00;9.0;;;2.7;;
58306;SDS011;44116;50.884;4.768;2023-07-22T12:42:59;6.7;;;2.5;;
58306;SDS011;44116;50.884;4.768;2023-07-22T12:48:59;5.0;;;2.8;;
58306;SDS011;44116;50.884;4.768;2023-07-22T12:51:00;6.9;;;2.6;;
58306;SDS011;44116;50.884;4.768;2023-07-22T12:53:00;4.8;;;2.2;;
58306;SDS011;44116;50.884;4.768;2023-07-22T12:55:00;4.9;;;2.3;;
58306;SDS011;44116;50.884;4.768;2023-07-22T12:57:00;4.5;;;2.5;;
58306;SDS011;44116;50.884;4.768;2023-07-22T12:59:00;4.5;;;2.2;;
58306;SDS011;44116;50.884;4.768;2023-07-22T13:01:00;4.9;;;2.4;;
58306;SDS011;44116;50.884;4.768;2023-07-22T13:03:00;5.4;;;2.5;;
58306;SDS011;44116;50.884;4.768;2023-07-22T13:05:00;4.0;;;2.4;;
58306;SDS011;44116;50.884;4.768;2023-07-22T13:07:00;3.8;;;2.3;;
58306;SDS011;44116;50.884;4.768;2023-07-22T13:09:00;4.7;;;2.5;;
58306;SDS011;44116;50.884;4.768;2023-07-22T13:11:00;3.5;;;2.2;;
58306;SDS011;44116;50.884;4.768;2023-07-22T13:13:01;3.1;;;2.0;;
58306;SDS011;44116;50.884;4.768;2023-07-22T13:17:01;5.2;;;2.2;;
58306;SDS011;44116;50.884;4.768;2023-07-22T13:19:01;6.1;;;2.6;;
58306;SDS011;44116;50.884;4.768;2023-07-22T13:21:01;3.9;;;2.3;;
58306;SDS011;44116;50.884;4.768;2023-07-22T13:23:01;6.0;;;2.1;;
58306;SDS011;44116;50.884;4.768;2023-07-22T13:27:01;7.2;;;2.2;;
58306;SDS011;44116;50.884;4.768;2023-07-22T13:31:02;4.6;;;2.3;;
58306;SDS011;44116;50.884;4.768;2023-07-22T13:33:02;4.4;;;1.9;;
58306;SDS011;44116;50.884;4.768;2023-07-22T13:35:02;4.9;;;2.2;;
58306;SDS011;44116;50.884;4.768;2023-07-22T13:37:02;3.9;;;1.8;;